createdAt,value
2022-10-25T00:01:30.588Z,1.80
2022-10-25T00:06:26.772Z,2.70
2022-10-25T00:08:53.988Z,2.17
2022-10-25T00:11:31.298Z,2.03
2022-10-25T00:14:02.203Z,2.60
2022-10-25T00:16:34.603Z,2.97
2022-10-25T00:19:01.664Z,2.20
2022-10-25T00:21:28.675Z,2.33
2022-10-25T00:23:55.727Z,1.90
2022-10-25T00:26:22.811Z,2.50
2022-10-25T00:28:54.947Z,1.90
2022-10-25T00:31:23.757Z,1.90
2022-10-25T00:33:50.896Z,2.30
2022-10-25T00:36:21.564Z,2.70
2022-10-25T00:38:48.923Z,2.42
2022-10-25T00:41:22.248Z,2.00
2022-10-25T00:43:55.906Z,2.38
2022-10-25T00:46:31.674Z,2.13
2022-10-25T00:49:10.715Z,2.50
2022-10-25T00:51:59.283Z,3.30
2022-10-25T00:54:38.175Z,1.67
2022-10-25T00:57:16.096Z,2.38
2022-10-25T00:59:46.393Z,2.10
2022-10-25T01:02:16.462Z,2.95
2022-10-25T01:04:44.160Z,2.42
2022-10-25T01:07:11.797Z,2.00
2022-10-25T01:09:41.227Z,2.17
2022-10-25T01:12:08.287Z,2.53
2022-10-25T01:14:43.206Z,2.10
2022-10-25T01:17:41.475Z,2.45
2022-10-25T01:21:01.081Z,1.90
2022-10-25T01:24:25.571Z,1.70
2022-10-25T01:27:15.629Z,1.50
2022-10-25T01:30:22.907Z,2.20
2022-10-25T01:33:14.465Z,1.90
2022-10-25T01:35:58.760Z,2.08
2022-10-25T01:38:59.767Z,1.92
2022-10-25T01:41:53.884Z,2.35
2022-10-25T01:44:42.479Z,2.10
2022-10-25T01:47:41.250Z,2.05
2022-10-25T01:50:21.238Z,1.92
2022-10-25T01:52:48.246Z,2.15
2022-10-25T01:55:16.364Z,2.05
2022-10-25T01:58:06.010Z,2.15
2022-10-25T02:00:52.931Z,2.30
2022-10-25T02:03:45.152Z,1.90
2022-10-25T02:06:28.802Z,2.75
2022-10-25T02:09:17.747Z,1.50
2022-10-25T02:11:45.020Z,1.80
2022-10-25T02:14:28.589Z,2.65
2022-10-25T02:17:15.627Z,1.55
2022-10-25T02:19:50.901Z,1.77
2022-10-25T02:22:23.882Z,1.90
2022-10-25T02:24:53.525Z,1.77
2022-10-25T02:27:23.409Z,1.83
2022-10-25T02:29:54.126Z,2.25
2022-10-25T02:32:21.888Z,1.88
2022-10-25T02:34:50.556Z,1.60
2022-10-25T02:37:18.209Z,1.80
2022-10-25T02:39:46.490Z,1.98
2022-10-25T02:42:13.486Z,1.60
2022-10-25T02:44:40.572Z,2.05
2022-10-25T02:47:08.084Z,1.88
2022-10-25T02:49:35.197Z,1.85
2022-10-25T02:52:02.264Z,2.35
2022-10-25T02:54:29.264Z,1.65
2022-10-25T02:56:56.235Z,1.52
2022-10-25T02:59:23.403Z,1.85
2022-10-25T03:01:50.367Z,1.67
2022-10-25T03:04:17.637Z,1.80
2022-10-25T03:06:44.634Z,1.70
2022-10-25T03:09:11.648Z,1.95
2022-10-25T03:11:38.638Z,1.80
2022-10-25T03:14:05.698Z,1.80
2022-10-25T03:16:32.728Z,2.22
2022-10-25T03:18:59.987Z,2.10
2022-10-25T03:21:27.084Z,2.03
2022-10-25T03:23:54.177Z,2.20
2022-10-25T03:26:22.542Z,2.45
2022-10-25T03:28:49.729Z,2.17
2022-10-25T03:31:18.287Z,2.33
2022-10-25T03:33:45.391Z,1.90
2022-10-25T03:36:14.007Z,2.00
2022-10-25T03:38:41.056Z,1.90
2022-10-25T03:41:08.408Z,1.80
2022-10-25T03:43:35.909Z,1.85
2022-10-25T03:46:02.998Z,2.05
2022-10-25T03:48:30.062Z,2.10
2022-10-25T03:50:57.119Z,1.95
2022-10-25T03:53:24.113Z,2.30
2022-10-25T03:55:51.144Z,1.70
2022-10-25T03:58:19.691Z,1.98
2022-10-25T04:00:46.825Z,1.85
2022-10-25T04:03:14.788Z,2.40
2022-10-25T04:05:45.714Z,2.00
2022-10-25T04:08:12.655Z,2.08
2022-10-25T04:10:39.636Z,2.33
2022-10-25T04:13:06.717Z,2.15
2022-10-25T04:15:33.800Z,2.13
2022-10-25T04:18:00.747Z,2.28
2022-10-25T04:20:28.809Z,1.95
2022-10-25T04:22:57.358Z,2.53
2022-10-25T04:25:26.873Z,2.17
2022-10-25T04:27:54.987Z,1.90
2022-10-25T04:30:22.607Z,2.08
2022-10-25T04:32:50.205Z,2.10
2022-10-25T04:35:17.760Z,1.88
2022-10-25T04:37:45.817Z,1.83
2022-10-25T04:40:13.360Z,2.10
2022-10-25T04:42:42.151Z,2.17
2022-10-25T04:45:11.070Z,2.20
2022-10-25T04:47:38.824Z,2.20
2022-10-25T04:50:07.903Z,2.35
2022-10-25T04:52:35.840Z,2.72
2022-10-25T04:55:03.891Z,3.35
2022-10-25T04:57:32.559Z,3.28
2022-10-25T05:00:00.415Z,4.15
2022-10-25T05:02:28.316Z,2.65
2022-10-25T05:04:56.054Z,2.63
2022-10-25T05:07:24.995Z,2.67
2022-10-25T05:09:52.578Z,3.70
2022-10-25T05:12:40.269Z,10.80
2022-10-25T05:15:09.563Z,2.97
2022-10-25T05:17:38.337Z,4.68
2022-10-25T05:20:10.298Z,5.18
2022-10-25T05:22:37.869Z,3.22
2022-10-25T05:25:07.098Z,2.45
2022-10-25T05:27:40.289Z,2.72
2022-10-25T05:30:09.395Z,3.33
2022-10-25T05:32:38.604Z,4.28
2022-10-25T05:35:06.857Z,3.47
2022-10-25T05:37:34.780Z,3.17
2022-10-25T05:40:02.374Z,4.22
2022-10-25T05:42:30.116Z,3.22
2022-10-25T05:45:00.344Z,3.22
2022-10-25T05:47:28.615Z,3.15
2022-10-25T05:49:56.372Z,3.80
2022-10-25T05:52:24.014Z,3.53
2022-10-25T05:54:52.940Z,3.90
2022-10-25T05:57:21.060Z,3.63
2022-10-25T05:59:49.017Z,3.10
2022-10-25T06:02:17.108Z,3.38
2022-10-25T06:04:47.878Z,3.65
2022-10-25T06:09:47.793Z,3.03
2022-10-25T06:12:15.554Z,2.33
2022-10-25T06:14:43.200Z,2.85
2022-10-25T06:17:13.244Z,2.45
2022-10-25T06:19:40.955Z,3.00
2022-10-25T06:22:08.568Z,2.58
2022-10-25T06:24:36.309Z,2.42
2022-10-25T06:27:03.913Z,2.45
2022-10-25T06:29:31.671Z,2.70
2022-10-25T06:31:59.443Z,2.50
2022-10-25T06:34:29.189Z,2.70
2022-10-25T06:36:56.695Z,2.63
2022-10-25T06:39:25.372Z,2.65
2022-10-25T06:41:52.977Z,2.35
2022-10-25T06:44:21.247Z,2.13
2022-10-25T06:49:39.062Z,2.45
2022-10-25T06:52:07.402Z,2.05
2022-10-25T06:54:36.770Z,2.90
2022-10-25T06:57:04.537Z,2.30
2022-10-25T06:59:32.654Z,2.38
2022-10-25T07:02:00.376Z,2.60
2022-10-25T07:04:32.755Z,2.70
2022-10-25T07:07:00.586Z,2.72
2022-10-25T07:09:28.634Z,2.92
2022-10-25T07:11:57.378Z,3.22
2022-10-25T07:14:25.988Z,2.90
2022-10-25T07:16:54.322Z,3.42
2022-10-25T07:19:24.473Z,2.97
2022-10-25T07:21:53.076Z,3.38
2022-10-25T07:24:21.032Z,3.20
2022-10-25T07:26:48.925Z,3.53
2022-10-25T07:29:17.696Z,3.70
2022-10-25T07:31:46.211Z,3.70
2022-10-25T07:34:34.015Z,3.40
2022-10-25T07:37:03.199Z,3.47
2022-10-25T07:39:30.712Z,3.33
2022-10-25T07:42:00.687Z,3.60
2022-10-25T07:44:27.871Z,3.22
2022-10-25T07:46:55.561Z,3.88
2022-10-25T07:49:23.132Z,3.85
2022-10-25T07:51:50.825Z,4.00
2022-10-25T07:54:18.219Z,4.57
2022-10-25T07:56:48.844Z,4.22
2022-10-25T07:59:19.265Z,4.18
2022-10-25T08:01:46.986Z,3.80
2022-10-25T08:04:14.625Z,3.97
2022-10-25T08:06:42.322Z,4.03
2022-10-25T08:09:14.752Z,3.90
2022-10-25T08:11:44.051Z,4.18
2022-10-25T08:14:12.275Z,3.75
2022-10-25T08:16:40.145Z,4.32
2022-10-25T08:19:12.450Z,4.00
2022-10-25T08:21:39.704Z,3.70
2022-10-25T08:24:07.062Z,4.43
2022-10-25T08:26:36.787Z,3.70
2022-10-25T08:29:04.494Z,3.80
2022-10-25T08:31:33.740Z,3.47
2022-10-25T08:34:00.967Z,3.60
2022-10-25T08:36:31.011Z,3.40
2022-10-25T08:38:59.941Z,3.25
2022-10-25T08:41:38.758Z,3.15
2022-10-25T08:44:23.711Z,3.90
2022-10-25T08:47:04.499Z,2.92
2022-10-25T08:50:03.567Z,2.90
2022-10-25T08:52:55.422Z,3.28
2022-10-25T08:55:32.428Z,3.50
2022-10-25T08:58:02.460Z,3.00
2022-10-25T09:00:37.554Z,3.45
2022-10-25T09:03:05.406Z,3.03
2022-10-25T09:05:45.397Z,3.30
2022-10-25T09:08:33.802Z,2.97
2022-10-25T09:11:20.120Z,3.08
2022-10-25T09:14:12.561Z,2.60
2022-10-25T09:17:04.168Z,3.05
2022-10-25T09:19:39.740Z,2.60
2022-10-25T09:22:26.972Z,3.05
2022-10-25T09:25:02.920Z,3.17
2022-10-25T09:28:01.413Z,3.08
2022-10-25T09:30:39.219Z,2.60
2022-10-25T09:35:54.686Z,2.42
2022-10-25T09:38:40.345Z,2.60
2022-10-25T09:41:19.349Z,2.60
2022-10-25T09:44:06.724Z,2.60
2022-10-25T09:46:56.875Z,2.38
2022-10-25T09:50:22.158Z,2.45
2022-10-25T09:53:17.679Z,2.42
2022-10-25T09:56:00.065Z,3.10
2022-10-25T09:58:31.969Z,2.63
2022-10-25T10:01:06.166Z,2.30
2022-10-25T10:06:18.612Z,2.20
2022-10-25T10:09:02.651Z,2.08
2022-10-25T10:11:34.440Z,2.10
2022-10-25T10:14:40.403Z,1.90
2022-10-25T10:17:15.199Z,2.28
2022-10-25T10:19:44.000Z,2.42
2022-10-25T10:22:17.024Z,2.55
2022-10-25T10:24:57.899Z,3.00
2022-10-25T10:27:27.981Z,2.75
2022-10-25T10:30:02.652Z,2.72
2022-10-25T10:32:37.846Z,1.95
2022-10-25T10:35:28.014Z,2.75
2022-10-25T10:38:15.759Z,3.45
2022-10-25T10:40:45.631Z,2.53
2022-10-25T10:43:31.980Z,2.20
2022-10-25T10:46:08.016Z,2.28
2022-10-25T10:48:43.104Z,2.05
2022-10-25T10:51:42.950Z,3.25
2022-10-25T10:54:23.478Z,2.75
2022-10-25T10:57:03.096Z,2.10
2022-10-25T10:59:53.204Z,3.25
2022-10-25T11:02:26.627Z,2.53
2022-10-25T11:04:56.427Z,3.20
2022-10-25T11:07:35.854Z,2.65
2022-10-25T11:10:14.939Z,3.20
2022-10-25T11:12:44.158Z,4.35
2022-10-25T11:15:13.691Z,2.10
2022-10-25T11:17:54.740Z,1.80
2022-10-25T11:20:48.703Z,1.73
2022-10-25T11:23:23.974Z,1.35
2022-10-25T11:26:02.191Z,2.10
2022-10-25T11:28:54.761Z,2.17
2022-10-25T11:31:43.278Z,2.10
2022-10-25T11:34:37.912Z,2.50
2022-10-25T11:37:21.331Z,3.22
2022-10-25T11:40:09.767Z,2.63
2022-10-25T11:43:08.936Z,2.55
2022-10-25T11:45:46.963Z,2.75
2022-10-25T11:49:00.015Z,2.70
2022-10-25T11:52:11.341Z,2.50
2022-10-25T11:55:08.659Z,2.50
2022-10-25T11:58:03.160Z,2.55
2022-10-25T12:00:46.983Z,3.20
2022-10-25T12:03:33.159Z,2.95
2022-10-25T12:06:22.217Z,3.50
2022-10-25T12:09:10.556Z,2.80
2022-10-25T12:12:07.152Z,2.53
2022-10-25T12:14:41.252Z,3.08
2022-10-25T12:19:55.865Z,3.50
2022-10-25T12:22:47.726Z,2.95
2022-10-25T12:25:34.309Z,3.28
2022-10-25T12:28:41.159Z,2.70
2022-10-25T12:31:21.553Z,2.88
2022-10-25T12:34:01.671Z,2.65
2022-10-25T12:36:38.817Z,2.38
2022-10-25T12:39:41.066Z,2.83
2022-10-25T12:42:50.819Z,2.95
2022-10-25T12:46:04.193Z,2.83
2022-10-25T12:48:59.100Z,2.42
2022-10-25T12:52:01.250Z,2.30
2022-10-25T12:54:37.901Z,2.65
2022-10-25T12:57:33.959Z,2.13
2022-10-25T13:00:12.618Z,2.47
2022-10-25T13:03:03.936Z,2.20
2022-10-25T13:06:13.054Z,3.15
2022-10-25T13:08:42.075Z,2.42
2022-10-25T13:11:10.827Z,1.92
2022-10-25T13:13:50.315Z,1.70
2022-10-25T13:16:33.187Z,2.33
2022-10-25T13:19:49.765Z,2.47
2022-10-25T13:22:39.961Z,1.75
2022-10-25T13:25:13.149Z,1.80
2022-10-25T13:28:15.495Z,1.80
2022-10-25T13:30:44.783Z,1.77
2022-10-25T13:33:22.636Z,1.65
2022-10-25T13:35:49.614Z,2.20
2022-10-25T13:38:25.444Z,1.73
2022-10-25T13:41:12.519Z,1.63
2022-10-25T13:44:02.497Z,1.92
2022-10-25T13:46:37.724Z,2.00
2022-10-25T13:49:29.919Z,1.70
2022-10-25T13:52:01.264Z,2.38
2022-10-25T13:54:48.350Z,1.92
2022-10-25T13:57:55.832Z,1.40
2022-10-25T14:00:36.668Z,1.70
2022-10-25T14:03:34.923Z,1.35
2022-10-25T14:06:08.605Z,1.65
2022-10-25T14:08:49.507Z,2.17
2022-10-25T14:11:27.327Z,2.58
2022-10-25T14:14:13.697Z,1.65
2022-10-25T14:16:53.005Z,1.60
2022-10-25T14:19:27.221Z,3.58
2022-10-25T14:24:22.706Z,2.15
2022-10-25T14:26:56.376Z,2.42
2022-10-25T14:29:28.239Z,2.25
2022-10-25T14:31:57.255Z,1.35
2022-10-25T14:34:30.045Z,1.73
2022-10-25T14:36:58.953Z,2.10
2022-10-25T14:39:30.570Z,1.52
2022-10-25T14:42:03.440Z,2.10
2022-10-25T14:44:50.455Z,1.88
2022-10-25T14:47:33.768Z,1.52
2022-10-25T14:50:02.065Z,1.48
2022-10-25T14:52:31.383Z,1.42
2022-10-25T14:55:06.298Z,1.17
2022-10-25T14:57:34.643Z,1.58
2022-10-25T15:00:05.725Z,1.83
2022-10-25T15:02:37.295Z,1.52
2022-10-25T15:05:05.892Z,1.20
2022-10-25T15:07:41.186Z,1.10
2022-10-25T15:10:40.652Z,1.45
2022-10-25T15:13:16.096Z,1.38
2022-10-25T15:15:47.139Z,1.48
2022-10-25T15:18:35.482Z,1.27
2022-10-25T15:21:17.611Z,1.17
2022-10-25T15:24:14.869Z,1.80
2022-10-25T15:27:05.825Z,1.17
2022-10-25T15:29:42.210Z,1.30
2022-10-25T15:32:22.241Z,1.45
2022-10-25T15:34:56.207Z,1.30
2022-10-25T15:37:26.061Z,1.35
2022-10-25T15:39:55.829Z,1.13
2022-10-25T15:42:25.956Z,1.02
2022-10-25T15:44:52.976Z,1.20
2022-10-25T15:47:33.588Z,1.08
2022-10-25T15:50:10.003Z,1.30
2022-10-25T15:52:37.135Z,1.73
2022-10-25T15:55:27.194Z,1.40
2022-10-25T15:57:55.402Z,1.23
2022-10-25T16:00:28.059Z,1.25
2022-10-25T16:02:59.066Z,1.50
2022-10-25T16:05:33.090Z,1.42
2022-10-25T16:08:00.984Z,1.60
2022-10-25T16:10:29.624Z,1.98
2022-10-25T16:13:09.891Z,1.58
2022-10-25T16:15:37.449Z,1.60
2022-10-25T16:18:04.546Z,1.75
2022-10-25T16:20:32.432Z,1.23
2022-10-25T16:22:59.437Z,1.10
2022-10-25T16:25:32.836Z,1.30
2022-10-25T16:28:01.691Z,1.40
2022-10-25T16:30:36.550Z,1.40
2022-10-25T16:33:05.680Z,1.52
2022-10-25T16:35:33.008Z,1.30
2022-10-25T16:38:00.137Z,1.20
2022-10-25T16:40:27.697Z,1.40
2022-10-25T16:42:54.765Z,1.52
2022-10-25T16:45:30.622Z,1.30
2022-10-25T16:47:58.942Z,1.80
2022-10-25T16:50:29.090Z,1.95
2022-10-25T16:53:01.066Z,1.73
2022-10-25T16:55:30.627Z,1.70
2022-10-25T16:57:59.643Z,1.67
2022-10-25T17:00:29.147Z,1.70
2022-10-25T17:02:56.276Z,1.77
2022-10-25T17:05:28.616Z,1.50
2022-10-25T17:07:56.286Z,1.50
2022-10-25T17:10:23.570Z,1.90
2022-10-25T17:12:54.244Z,1.60
2022-10-25T17:15:22.880Z,1.88
2022-10-25T17:17:50.141Z,1.77
2022-10-25T17:20:17.895Z,1.70
2022-10-25T17:22:45.646Z,1.67
2022-10-25T17:25:12.824Z,1.88
2022-10-25T17:27:45.466Z,1.85
2022-10-25T17:30:16.385Z,1.63
2022-10-25T17:32:43.342Z,1.92
2022-10-25T17:35:11.560Z,2.20
2022-10-25T17:37:43.516Z,2.20
2022-10-25T17:40:12.319Z,2.80
2022-10-25T17:42:40.011Z,3.05
2022-10-25T17:45:07.790Z,2.50
2022-10-25T17:47:37.472Z,2.78
2022-10-25T17:50:05.688Z,2.60
2022-10-25T17:52:32.866Z,3.00
2022-10-25T17:55:01.400Z,2.78
2022-10-25T17:57:28.648Z,2.67
2022-10-25T17:59:58.081Z,2.70
2022-10-25T18:02:25.337Z,2.90
2022-10-25T18:05:08.544Z,2.88
2022-10-25T18:07:39.476Z,2.90
2022-10-25T18:10:06.763Z,3.08
2022-10-25T18:12:33.828Z,2.90
2022-10-25T18:15:00.874Z,2.80
2022-10-25T18:17:27.880Z,2.92
2022-10-25T18:19:54.922Z,2.78
2022-10-25T18:22:22.902Z,2.40
2022-10-25T18:24:49.920Z,2.40
2022-10-25T18:27:16.905Z,2.97
2022-10-25T18:29:43.876Z,3.40
2022-10-25T18:32:10.905Z,2.80
2022-10-25T18:34:37.972Z,2.70
2022-10-25T18:37:05.092Z,2.95
2022-10-25T18:39:32.179Z,2.50
2022-10-25T18:41:59.216Z,3.28
2022-10-25T18:44:26.226Z,3.33
2022-10-25T18:46:54.026Z,3.30
2022-10-25T18:49:21.032Z,3.67
2022-10-25T18:51:48.081Z,3.38
2022-10-25T18:54:15.067Z,3.47
2022-10-25T18:56:42.211Z,3.70
2022-10-25T18:59:10.437Z,3.72
2022-10-25T19:01:37.963Z,3.40
2022-10-25T19:04:05.363Z,4.45
2022-10-25T19:06:33.648Z,4.75
2022-10-25T19:09:02.868Z,4.22
2022-10-25T19:11:30.253Z,4.38
2022-10-25T19:13:57.521Z,4.47
2022-10-25T19:16:24.618Z,4.93
2022-10-25T19:18:52.158Z,4.70
2022-10-25T19:21:19.688Z,5.00
2022-10-25T19:23:47.347Z,4.50
2022-10-25T19:26:19.425Z,4.40
2022-10-25T19:28:48.140Z,4.88
2022-10-25T19:31:18.076Z,4.50
2022-10-25T19:33:50.474Z,4.45
2022-10-25T19:36:19.807Z,4.90
2022-10-25T19:38:50.216Z,4.90
2022-10-25T19:41:22.780Z,4.47
2022-10-25T19:43:50.690Z,4.53
2022-10-25T19:46:18.922Z,4.70
2022-10-25T19:48:46.381Z,4.32
2022-10-25T19:51:20.075Z,4.40
2022-10-25T19:53:47.491Z,4.45
2022-10-25T19:56:20.701Z,4.28
2022-10-25T19:58:48.717Z,4.30
2022-10-25T20:01:23.884Z,4.50
2022-10-25T20:03:54.670Z,5.40
2022-10-25T20:06:26.912Z,4.43
2022-10-25T20:08:57.656Z,4.30
2022-10-25T20:11:26.347Z,4.15
2022-10-25T20:13:55.839Z,4.18
2022-10-25T20:16:25.475Z,4.10
2022-10-25T20:18:53.060Z,4.18
2022-10-25T20:21:26.290Z,3.92
2022-10-25T20:23:58.344Z,4.00
2022-10-25T20:26:31.616Z,3.67
2022-10-25T20:29:02.773Z,4.65
2022-10-25T20:31:33.491Z,4.28
2022-10-25T20:34:02.564Z,4.30
2022-10-25T20:36:30.321Z,4.43
2022-10-25T20:38:59.346Z,4.25
2022-10-25T20:41:30.830Z,4.68
2022-10-25T20:44:00.788Z,4.50
2022-10-25T20:46:28.995Z,4.45
2022-10-25T20:48:58.236Z,4.18
2022-10-25T20:51:26.216Z,4.40
2022-10-25T20:53:53.629Z,4.57
2022-10-25T20:56:21.865Z,4.35
2022-10-25T20:58:49.008Z,4.80
2022-10-25T21:01:16.519Z,4.57
2022-10-25T21:03:48.691Z,3.95
2022-10-25T21:06:15.759Z,4.00
2022-10-25T21:08:42.788Z,4.15
2022-10-25T21:11:13.000Z,4.10
2022-10-25T21:13:40.690Z,4.22
2022-10-25T21:16:09.844Z,4.07
2022-10-25T21:18:37.632Z,4.22
2022-10-25T21:21:09.198Z,4.40
2022-10-25T21:23:36.727Z,4.53
2022-10-25T21:26:07.034Z,4.18
2022-10-25T21:28:40.382Z,3.88
2022-10-25T21:31:15.204Z,3.97
2022-10-25T21:33:49.892Z,4.60
2022-10-25T21:36:20.285Z,4.60
2022-10-25T21:38:49.428Z,4.53
2022-10-25T21:41:23.354Z,4.55
2022-10-25T21:43:50.978Z,4.47
2022-10-25T21:46:20.855Z,4.68
2022-10-25T21:48:50.499Z,4.65
2022-10-25T21:51:21.490Z,4.78
2022-10-25T21:53:48.621Z,5.43
2022-10-25T21:56:20.552Z,5.10
2022-10-25T21:58:49.817Z,4.50
2022-10-25T22:01:24.597Z,5.40
2022-10-25T22:03:52.595Z,5.43
2022-10-25T22:06:23.230Z,5.35
2022-10-25T22:08:50.752Z,5.57
2022-10-25T22:11:27.415Z,6.00
2022-10-25T22:14:02.331Z,7.10
2022-10-25T22:16:32.500Z,5.47
2022-10-25T22:19:13.334Z,5.15
2022-10-25T22:21:41.775Z,5.35
2022-10-25T22:24:11.368Z,4.60
2022-10-25T22:26:44.565Z,4.97
2022-10-25T22:29:13.991Z,4.97
2022-10-25T22:31:41.655Z,4.88
2022-10-25T22:34:10.503Z,5.18
2022-10-25T22:36:41.286Z,4.97
2022-10-25T22:39:10.485Z,5.10
2022-10-25T22:41:37.536Z,4.82
2022-10-25T22:44:04.956Z,4.72
2022-10-25T22:46:35.680Z,5.10
2022-10-25T22:49:08.949Z,4.82
2022-10-25T22:51:38.367Z,4.80
2022-10-25T22:54:05.785Z,5.88
2022-10-25T22:56:33.778Z,4.93
2022-10-25T22:59:04.473Z,4.95
2022-10-25T23:01:35.626Z,5.13
2022-10-25T23:04:09.385Z,5.32
2022-10-25T23:06:39.807Z,5.28
2022-10-25T23:09:11.006Z,4.82
2022-10-25T23:11:40.783Z,5.13
2022-10-25T23:14:13.334Z,5.70
2022-10-25T23:16:46.075Z,5.03
2022-10-25T23:19:13.194Z,5.00
2022-10-25T23:21:41.272Z,4.82
2022-10-25T23:24:09.659Z,4.97
2022-10-25T23:26:36.790Z,4.90
2022-10-25T23:29:05.021Z,4.22
2022-10-25T23:31:32.812Z,4.85
2022-10-25T23:34:01.089Z,5.28
2022-10-25T23:36:37.410Z,5.15
2022-10-25T23:39:07.934Z,4.90
2022-10-25T23:41:34.967Z,5.00
2022-10-25T23:44:02.287Z,4.72
2022-10-25T23:46:29.277Z,4.65
2022-10-25T23:48:56.490Z,4.50
2022-10-25T23:51:23.484Z,4.63
2022-10-25T23:53:50.477Z,5.00
2022-10-25T23:56:17.498Z,4.85
2022-10-25T23:58:45.592Z,5.30
